<?xml version="1.0" encoding="UTF-8" standalone="no" ?>
<gpx xmlns="http://www.topografix.com/GPX/1/1" xmlns:xsi="http://www.w3.org/2001/XMLSchema-instance" xsi:schemaLocation="http://www.topografix.com/GPX/1/1 http://www.topografix.com/GPX/1/1/gpx.xsd" version="1.1" creator="VisuGPX - https://www.visugpx.com">
  <metadata>
    <name>StNicolasTertre_20km</name>
    <desc><![CDATA[gnerando]]></desc>
  </metadata>
  <trk>
    <name><![CDATA[StNicolasTertre_20km]]></name>
    <extensions>
      <line xmlns="http://www.topografix.com/GPX/gpx_style/0/2">
        <color>0000FF</color>
        <width>4</width>
      </line>
    </extensions>
    <trkseg>
      <trkpt lat="47.80261" lon="-2.22334">
        <ele>52.4</ele>
        <time>2023-03-22T11:25:19.343Z</time>
      </trkpt>
      <trkpt lat="47.80168" lon="-2.22337">
        <ele>47.9</ele>
        <time>2023-03-22T11:23:15.223Z</time>
      </trkpt>
      <trkpt lat="47.79993" lon="-2.22407">
        <ele>40.5</ele>
        <time>2023-03-22T11:19:13.436Z</time>
      </trkpt>
      <trkpt lat="47.79526" lon="-2.22005">
        <ele>43</ele>
        <time>2023-03-22T11:07:13.630Z</time>
      </trkpt>
      <trkpt lat="47.7941" lon="-2.22813">
        <ele>43</ele>
        <time>2023-03-22T10:54:53Z</time>
        <extensions>
          <visugpx:TrkExtension xmlns:visugpx="https://www.visugpx.com/editgpx/">
            <visugpx:node>1</visugpx:node>
            </visugpx:TrkExtension>
        </extensions>
      </trkpt>
      <trkpt lat="47.79214" lon="-2.22873">
        <ele>49</ele>
        <time>2023-03-22T10:50:26Z</time>
      </trkpt>
      <trkpt lat="47.79445" lon="-2.23233">
        <ele>49</ele>
        <time>2023-03-22T10:42:59Z</time>
      </trkpt>
      <trkpt lat="47.79136" lon="-2.23491">
        <ele>67</ele>
        <time>2023-03-22T10:35:06Z</time>
      </trkpt>
      <trkpt lat="47.7907" lon="-2.23546">
        <ele>72</ele>
        <time>2023-03-22T10:33:26Z</time>
      </trkpt>
      <trkpt lat="47.79021" lon="-2.23637">
        <ele>77</ele>
        <time>2023-03-22T10:31:41Z</time>
      </trkpt>
      <trkpt lat="47.78819" lon="-2.23795">
        <ele>79</ele>
        <time>2023-03-22T10:26:36Z</time>
      </trkpt>
      <trkpt lat="47.78767" lon="-2.23581">
        <ele>77</ele>
        <time>2023-03-22T10:23:12Z</time>
      </trkpt>
      <trkpt lat="47.78761" lon="-2.23439">
        <ele>76</ele>
        <time>2023-03-22T10:21:05Z</time>
      </trkpt>
      <trkpt lat="47.78446" lon="-2.23844">
        <ele>95.5</ele>
        <time>2023-03-22T10:13:57.559Z</time>
      </trkpt>
      <trkpt lat="47.78227" lon="-2.23877">
        <ele>100</ele>
        <time>2023-03-22T10:10:11.528Z</time>
      </trkpt>
      <trkpt lat="47.78019" lon="-2.23886">
        <ele>97.8</ele>
        <time>2023-03-22T10:06:37.852Z</time>
      </trkpt>
      <trkpt lat="47.77945" lon="-2.23722">
        <ele>99.1</ele>
        <time>2023-03-22T10:04:21.543Z</time>
      </trkpt>
      <trkpt lat="47.77922" lon="-2.23508">
        <ele>102</ele>
        <time>2023-03-22T10:01:52Z</time>
      </trkpt>
      <trkpt lat="47.77922" lon="-2.23418">
        <ele>103</ele>
        <time>2023-03-22T10:00:31Z</time>
      </trkpt>
      <trkpt lat="47.77902" lon="-2.23306">
        <ele>103</ele>
        <time>2023-03-22T09:58:47Z</time>
      </trkpt>
      <trkpt lat="47.77908" lon="-2.23207">
        <ele>104</ele>
        <time>2023-03-22T09:57:18Z</time>
      </trkpt>
      <trkpt lat="47.77864" lon="-2.23186">
        <ele>102</ele>
        <time>2023-03-22T09:56:17Z</time>
      </trkpt>
      <trkpt lat="47.77729" lon="-2.22727">
        <ele>102</ele>
        <time>2023-03-22T09:48:47Z</time>
      </trkpt>
      <trkpt lat="47.77726" lon="-2.22577">
        <ele>103</ele>
        <time>2023-03-22T09:46:33Z</time>
      </trkpt>
      <trkpt lat="47.77752" lon="-2.22504">
        <ele>103</ele>
        <time>2023-03-22T09:45:19Z</time>
      </trkpt>
      <trkpt lat="47.77706" lon="-2.21933">
        <ele>105</ele>
        <time>2023-03-22T09:36:43Z</time>
      </trkpt>
      <trkpt lat="47.77691" lon="-2.21555">
        <ele>107</ele>
        <time>2023-03-22T09:31:03Z</time>
      </trkpt>
      <trkpt lat="47.77613" lon="-2.21178">
        <ele>107</ele>
        <time>2023-03-22T09:25:10Z</time>
      </trkpt>
      <trkpt lat="47.77417" lon="-2.20212">
        <ele>100</ele>
        <time>2023-03-22T09:10:05Z</time>
      </trkpt>
      <trkpt lat="47.77735" lon="-2.20066">
        <ele>90</ele>
        <time>2023-03-22T09:02:41Z</time>
      </trkpt>
      <trkpt lat="47.77913" lon="-2.19912">
        <ele>75</ele>
        <time>2023-03-22T08:58:06Z</time>
      </trkpt>
      <trkpt lat="47.77876" lon="-2.19624">
        <ele>70</ele>
        <time>2023-03-22T08:53:43Z</time>
      </trkpt>
      <trkpt lat="47.77818" lon="-2.19298">
        <ele>63</ele>
        <time>2023-03-22T08:48:40Z</time>
      </trkpt>
      <trkpt lat="47.77798" lon="-2.19148">
        <ele>64</ele>
        <time>2023-03-22T08:46:23Z</time>
      </trkpt>
      <trkpt lat="47.77787" lon="-2.19027">
        <ele>64</ele>
        <time>2023-03-22T08:44:34Z</time>
      </trkpt>
      <trkpt lat="47.77714" lon="-2.18847">
        <ele>74</ele>
        <time>2023-03-22T08:41:25Z</time>
      </trkpt>
      <trkpt lat="47.77694" lon="-2.18671">
        <ele>76</ele>
        <time>2023-03-22T08:38:45Z</time>
      </trkpt>
      <trkpt lat="47.77665" lon="-2.1853">
        <ele>73</ele>
        <time>2023-03-22T08:36:33Z</time>
      </trkpt>
      <trkpt lat="47.7757" lon="-2.18392">
        <ele>75</ele>
        <time>2023-03-22T08:33:36Z</time>
      </trkpt>
      <trkpt lat="47.77492" lon="-2.18221">
        <ele>77</ele>
        <time>2023-03-22T08:30:30Z</time>
      </trkpt>
      <trkpt lat="47.774" lon="-2.17967">
        <ele>83</ele>
        <time>2023-03-22T08:26:12Z</time>
      </trkpt>
      <trkpt lat="47.77438" lon="-2.17925">
        <ele>81</ele>
        <time>2023-03-22T08:25:09Z</time>
      </trkpt>
      <trkpt lat="47.777" lon="-2.17671">
        <ele>82</ele>
        <time>2023-03-22T08:18:11Z</time>
      </trkpt>
      <trkpt lat="47.77925" lon="-2.17504">
        <ele>80</ele>
        <time>2023-03-22T08:12:36Z</time>
      </trkpt>
      <trkpt lat="47.78003" lon="-2.17277">
        <ele>70</ele>
        <time>2023-03-22T08:08:47Z</time>
      </trkpt>
      <trkpt lat="47.78104" lon="-2.17191">
        <ele>56</ele>
        <time>2023-03-22T08:06:12Z</time>
      </trkpt>
      <trkpt lat="47.78138" lon="-2.17126">
        <ele>51</ele>
        <time>2023-03-22T08:04:58Z</time>
      </trkpt>
      <trkpt lat="47.783" lon="-2.17083">
        <ele>39</ele>
        <time>2023-03-22T08:01:18Z</time>
      </trkpt>
      <trkpt lat="47.78389" lon="-2.16998">
        <ele>35</ele>
        <time>2023-03-22T07:58:57Z</time>
      </trkpt>
      <trkpt lat="47.78432" lon="-2.16929">
        <ele>34</ele>
        <time>2023-03-22T07:57:33Z</time>
      </trkpt>
      <trkpt lat="47.78516" lon="-2.16852">
        <ele>31</ele>
        <time>2023-03-22T07:55:21Z</time>
      </trkpt>
      <trkpt lat="47.78729" lon="-2.16779">
        <ele>26</ele>
        <time>2023-03-22T07:50:30Z</time>
      </trkpt>
      <trkpt lat="47.78721" lon="-2.16418">
        <ele>23</ele>
        <time>2023-03-22T07:45:06Z</time>
      </trkpt>
      <trkpt lat="47.78784" lon="-2.16186">
        <ele>18</ele>
        <time>2023-03-22T07:41:21Z</time>
      </trkpt>
      <trkpt lat="47.78761" lon="-2.15873">
        <ele>20</ele>
        <time>2023-03-22T07:36:39Z</time>
      </trkpt>
      <trkpt lat="47.78822" lon="-2.15637">
        <ele>17</ele>
        <time>2023-03-22T07:32:52Z</time>
      </trkpt>
      <trkpt lat="47.78888" lon="-2.15766">
        <ele>19</ele>
        <time>2023-03-22T07:30:27Z</time>
      </trkpt>
      <trkpt lat="47.78992" lon="-2.16006">
        <ele>21</ele>
        <time>2023-03-22T07:26:11Z</time>
      </trkpt>
      <trkpt lat="47.79104" lon="-2.16229">
        <ele>24</ele>
        <time>2023-03-22T07:22:01Z</time>
      </trkpt>
      <trkpt lat="47.7922" lon="-2.16311">
        <ele>29</ele>
        <time>2023-03-22T07:19:10Z</time>
      </trkpt>
      <trkpt lat="47.79283" lon="-2.16085">
        <ele>28.2</ele>
        <time>2023-03-22T07:17:57.465Z</time>
      </trkpt>
      <trkpt lat="47.79376" lon="-2.16098">
        <ele>27.8</ele>
        <time>2023-03-22T07:17:16.248Z</time>
      </trkpt>
      <trkpt lat="47.79432" lon="-2.16178">
        <ele>29.7</ele>
        <time>2023-03-22T07:16:42Z</time>
      </trkpt>
      <trkpt lat="47.79513" lon="-2.16233">
        <ele>32.1</ele>
        <time>2023-03-22T07:14:22.334Z</time>
      </trkpt>
      <trkpt lat="47.79608" lon="-2.16242">
        <ele>33</ele>
        <time>2023-03-22T07:11:53Z</time>
      </trkpt>
      <trkpt lat="47.79678" lon="-2.16283">
        <ele>31.2</ele>
        <time>2023-03-22T07:10:17Z</time>
      </trkpt>
      <trkpt lat="47.796" lon="-2.16693">
        <ele>34</ele>
        <time>2023-03-22T07:08:46Z</time>
      </trkpt>
      <trkpt lat="47.79664" lon="-2.16766">
        <ele>30</ele>
        <time>2023-03-22T07:06:59Z</time>
      </trkpt>
      <trkpt lat="47.79834" lon="-2.16813">
        <ele>26</ele>
        <time>2023-03-22T07:03:08Z</time>
      </trkpt>
      <trkpt lat="47.79906" lon="-2.16877">
        <ele>28</ele>
        <time>2023-03-22T07:01:16Z</time>
      </trkpt>
      <trkpt lat="47.79932" lon="-2.16929">
        <ele>28</ele>
        <time>2023-03-22T07:00:18Z</time>
      </trkpt>
      <trkpt lat="47.80105" lon="-2.17006">
        <ele>33</ele>
        <time>2023-03-22T06:56:17Z</time>
      </trkpt>
      <trkpt lat="47.80077" lon="-2.17087">
        <ele>33</ele>
        <time>2023-03-22T06:54:55.329Z</time>
        <extensions>
          <visugpx:TrkExtension xmlns:visugpx="https://www.visugpx.com/editgpx/">
            <visugpx:node>2</visugpx:node>
            </visugpx:TrkExtension>
        </extensions>
      </trkpt>
      <trkpt lat="47.80083" lon="-2.17127">
        <ele>33.6</ele>
        <time>2023-03-22T06:54:18.584Z</time>
      </trkpt>
      <trkpt lat="47.80084" lon="-2.17181">
        <ele>34</ele>
        <time>2023-03-22T06:53:30.152Z</time>
      </trkpt>
      <trkpt lat="47.80056" lon="-2.17301">
        <ele>35.8</ele>
        <time>2023-03-22T06:51:36.259Z</time>
      </trkpt>
      <trkpt lat="47.80045" lon="-2.17361">
        <ele>36.4</ele>
        <time>2023-03-22T06:50:40.497Z</time>
      </trkpt>
      <trkpt lat="47.80047" lon="-2.17392">
        <ele>37</ele>
        <time>2023-03-22T06:50:12.575Z</time>
      </trkpt>
      <trkpt lat="47.80059" lon="-2.17438">
        <ele>37</ele>
        <time>2023-03-22T06:49:28.331Z</time>
      </trkpt>
      <trkpt lat="47.8006" lon="-2.17457">
        <ele>37.4</ele>
        <time>2023-03-22T06:49:11.243Z</time>
      </trkpt>
      <trkpt lat="47.80053" lon="-2.17543">
        <ele>38.1</ele>
        <time>2023-03-22T06:47:53.569Z</time>
      </trkpt>
      <trkpt lat="47.80046" lon="-2.1772">
        <ele>40</ele>
        <time>2023-03-22T06:45:14.590Z</time>
      </trkpt>
      <trkpt lat="47.80033" lon="-2.17825">
        <ele>40</ele>
        <time>2023-03-22T06:43:38.857Z</time>
      </trkpt>
      <trkpt lat="47.80036" lon="-2.17858">
        <ele>40</ele>
        <time>2023-03-22T06:43:08.998Z</time>
      </trkpt>
      <trkpt lat="47.8006" lon="-2.18004">
        <ele>38.8</ele>
        <time>2023-03-22T06:40:54.225Z</time>
      </trkpt>
      <trkpt lat="47.80058" lon="-2.18083">
        <ele>39.8</ele>
        <time>2023-03-22T06:39:43.340Z</time>
        <extensions>
          <visugpx:TrkExtension xmlns:visugpx="https://www.visugpx.com/editgpx/">
            <visugpx:node>3</visugpx:node>
            </visugpx:TrkExtension>
        </extensions>
      </trkpt>
      <trkpt lat="47.80056" lon="-2.18156">
        <ele>40</ele>
        <time>2023-03-22T06:38:37.830Z</time>
      </trkpt>
      <trkpt lat="47.8007" lon="-2.18387">
        <ele>36.6</ele>
        <time>2023-03-22T06:35:09.862Z</time>
      </trkpt>
      <trkpt lat="47.80073" lon="-2.18417">
        <ele>35.7</ele>
        <time>2023-03-22T06:34:42.666Z</time>
      </trkpt>
      <trkpt lat="47.80076" lon="-2.18432">
        <ele>35.4</ele>
        <time>2023-03-22T06:34:28.632Z</time>
      </trkpt>
      <trkpt lat="47.80083" lon="-2.18446">
        <ele>35</ele>
        <time>2023-03-22T06:34:12.982Z</time>
      </trkpt>
      <trkpt lat="47.80078" lon="-2.18483">
        <ele>35.2</ele>
        <time>2023-03-22T06:33:39.139Z</time>
      </trkpt>
      <trkpt lat="47.80075" lon="-2.18565">
        <ele>37.2</ele>
        <time>2023-03-22T06:32:25.499Z</time>
      </trkpt>
      <trkpt lat="47.80066" lon="-2.18611">
        <ele>39.3</ele>
        <time>2023-03-22T06:31:42.535Z</time>
      </trkpt>
      <trkpt lat="47.80032" lon="-2.18701">
        <ele>41.7</ele>
        <time>2023-03-22T06:30:09.940Z</time>
      </trkpt>
      <trkpt lat="47.80026" lon="-2.18727">
        <ele>42</ele>
        <time>2023-03-22T06:29:45.287Z</time>
        <extensions>
          <visugpx:TrkExtension xmlns:visugpx="https://www.visugpx.com/editgpx/">
            <visugpx:node>4</visugpx:node>
            </visugpx:TrkExtension>
        </extensions>
      </trkpt>
      <trkpt lat="47.79846" lon="-2.18802">
        <ele>54.8</ele>
        <time>2023-03-22T06:25:35.750Z</time>
      </trkpt>
      <trkpt lat="47.79739" lon="-2.18832">
        <ele>60.9</ele>
        <time>2023-03-22T06:23:10.392Z</time>
      </trkpt>
      <trkpt lat="47.7969" lon="-2.18881">
        <ele>60.3</ele>
        <time>2023-03-22T06:21:51.586Z</time>
      </trkpt>
      <trkpt lat="47.7949" lon="-2.18906">
        <ele>57</ele>
        <time>2023-03-22T06:17:23.640Z</time>
      </trkpt>
      <trkpt lat="47.79493" lon="-2.18953">
        <ele>57.5</ele>
        <time>2023-03-22T06:16:41.297Z</time>
      </trkpt>
      <trkpt lat="47.79504" lon="-2.1907">
        <ele>58</ele>
        <time>2023-03-22T06:14:55.340Z</time>
      </trkpt>
      <trkpt lat="47.79509" lon="-2.19117">
        <ele>57.7</ele>
        <time>2023-03-22T06:14:12.661Z</time>
      </trkpt>
      <trkpt lat="47.79512" lon="-2.19143">
        <ele>58.1</ele>
        <time>2023-03-22T06:13:49.000Z</time>
      </trkpt>
      <trkpt lat="47.79515" lon="-2.19167">
        <ele>58.5</ele>
        <time>2023-03-22T06:13:27.104Z</time>
      </trkpt>
      <trkpt lat="47.79517" lon="-2.19182">
        <ele>58.7</ele>
        <time>2023-03-22T06:13:13.387Z</time>
      </trkpt>
      <trkpt lat="47.7952" lon="-2.19202">
        <ele>59</ele>
        <time>2023-03-22T06:12:55.005Z</time>
      </trkpt>
      <trkpt lat="47.79523" lon="-2.19215">
        <ele>59</ele>
        <time>2023-03-22T06:12:42.675Z</time>
      </trkpt>
      <trkpt lat="47.79545" lon="-2.19345">
        <ele>59.8</ele>
        <time>2023-03-22T06:10:42.420Z</time>
      </trkpt>
      <trkpt lat="47.79569" lon="-2.19478">
        <ele>63.2</ele>
        <time>2023-03-22T06:08:38.888Z</time>
      </trkpt>
      <trkpt lat="47.79582" lon="-2.19555">
        <ele>65.9</ele>
        <time>2023-03-22T06:07:27.670Z</time>
      </trkpt>
      <trkpt lat="47.79587" lon="-2.19586">
        <ele>66.1</ele>
        <time>2023-03-22T06:06:59.072Z</time>
      </trkpt>
      <trkpt lat="47.7959" lon="-2.19605">
        <ele>66.4</ele>
        <time>2023-03-22T06:06:41.564Z</time>
      </trkpt>
      <trkpt lat="47.79593" lon="-2.1963">
        <ele>66.7</ele>
        <time>2023-03-22T06:06:18.783Z</time>
      </trkpt>
      <trkpt lat="47.79594" lon="-2.19659">
        <ele>66.5</ele>
        <time>2023-03-22T06:05:52.734Z</time>
      </trkpt>
      <trkpt lat="47.79594" lon="-2.19663">
        <ele>66.4</ele>
        <time>2023-03-22T06:05:49.145Z</time>
      </trkpt>
      <trkpt lat="47.79592" lon="-2.19687">
        <ele>66.1</ele>
        <time>2023-03-22T06:05:27.445Z</time>
      </trkpt>
      <trkpt lat="47.7959" lon="-2.19699">
        <ele>66</ele>
        <time>2023-03-22T06:05:16.351Z</time>
      </trkpt>
      <trkpt lat="47.79588" lon="-2.1971">
        <ele>65.9</ele>
        <time>2023-03-22T06:05:06.125Z</time>
      </trkpt>
      <trkpt lat="47.79583" lon="-2.19729">
        <ele>65.8</ele>
        <time>2023-03-22T06:04:47.813Z</time>
      </trkpt>
      <trkpt lat="47.79565" lon="-2.19786">
        <ele>64</ele>
        <time>2023-03-22T06:03:51.291Z</time>
      </trkpt>
      <trkpt lat="47.79523" lon="-2.19919">
        <ele>62.2</ele>
        <time>2023-03-22T06:01:39.405Z</time>
      </trkpt>
      <trkpt lat="47.79532" lon="-2.19927">
        <ele>61.8</ele>
        <time>2023-03-22T06:01:25.401Z</time>
      </trkpt>
      <trkpt lat="47.79562" lon="-2.19951">
        <ele>60.8</ele>
        <time>2023-03-22T06:00:39.901Z</time>
      </trkpt>
      <trkpt lat="47.79575" lon="-2.19963">
        <ele>60.3</ele>
        <time>2023-03-22T06:00:19.465Z</time>
      </trkpt>
      <trkpt lat="47.79588" lon="-2.19976">
        <ele>59.7</ele>
        <time>2023-03-22T05:59:58.542Z</time>
      </trkpt>
      <trkpt lat="47.79597" lon="-2.19989">
        <ele>58.9</ele>
        <time>2023-03-22T05:59:41.787Z</time>
      </trkpt>
      <trkpt lat="47.79603" lon="-2.19998">
        <ele>58.4</ele>
        <time>2023-03-22T05:59:30.406Z</time>
      </trkpt>
      <trkpt lat="47.79609" lon="-2.20015">
        <ele>58.6</ele>
        <time>2023-03-22T05:59:13.169Z</time>
      </trkpt>
      <trkpt lat="47.79624" lon="-2.20054">
        <ele>60</ele>
        <time>2023-03-22T05:58:32.831Z</time>
      </trkpt>
      <trkpt lat="47.79641" lon="-2.20097">
        <ele>62.3</ele>
        <time>2023-03-22T05:57:48.046Z</time>
      </trkpt>
      <trkpt lat="47.79651" lon="-2.20127">
        <ele>63.3</ele>
        <time>2023-03-22T05:57:17.985Z</time>
      </trkpt>
      <trkpt lat="47.79652" lon="-2.20131">
        <ele>63.5</ele>
        <time>2023-03-22T05:57:14.154Z</time>
      </trkpt>
      <trkpt lat="47.79655" lon="-2.20146">
        <ele>64</ele>
        <time>2023-03-22T05:57:00.105Z</time>
      </trkpt>
      <trkpt lat="47.79657" lon="-2.20167">
        <ele>64.4</ele>
        <time>2023-03-22T05:56:41.065Z</time>
      </trkpt>
      <trkpt lat="47.7966" lon="-2.20231">
        <ele>66.5</ele>
        <time>2023-03-22T05:55:43.473Z</time>
      </trkpt>
      <trkpt lat="47.79662" lon="-2.20313">
        <ele>69</ele>
        <time>2023-03-22T05:54:29.813Z</time>
      </trkpt>
      <trkpt lat="47.79663" lon="-2.20345">
        <ele>69.8</ele>
        <time>2023-03-22T05:54:01.055Z</time>
        <extensions>
          <visugpx:TrkExtension xmlns:visugpx="https://www.visugpx.com/editgpx/">
            <visugpx:node>5</visugpx:node>
            </visugpx:TrkExtension>
        </extensions>
      </trkpt>
      <trkpt lat="47.79664" lon="-2.20372">
        <ele>70.9</ele>
        <time>2023-03-22T05:53:36.779Z</time>
        <extensions>
          <visugpx:TrkExtension xmlns:visugpx="https://www.visugpx.com/editgpx/">
            <visugpx:node>6</visugpx:node>
            </visugpx:TrkExtension>
        </extensions>
      </trkpt>
      <trkpt lat="47.79666" lon="-2.20409">
        <ele>71</ele>
        <time>2023-03-22T05:53:03.454Z</time>
      </trkpt>
      <trkpt lat="47.79707" lon="-2.20413">
        <ele>68.7</ele>
        <time>2023-03-22T05:52:08.542Z</time>
      </trkpt>
      <trkpt lat="47.79702" lon="-2.20459">
        <ele>66.9</ele>
        <time>2023-03-22T05:51:26.707Z</time>
      </trkpt>
      <trkpt lat="47.79792" lon="-2.20426">
        <ele>62.1</ele>
        <time>2023-03-22T05:49:22.830Z</time>
      </trkpt>
      <trkpt lat="47.79815" lon="-2.20468">
        <ele>59.3</ele>
        <time>2023-03-22T05:48:34.181Z</time>
      </trkpt>
      <trkpt lat="47.79832" lon="-2.20762">
        <ele>49.1</ele>
        <time>2023-03-22T05:44:09.257Z</time>
      </trkpt>
      <trkpt lat="47.79941" lon="-2.20762">
        <ele>45.5</ele>
        <time>2023-03-22T05:41:43.578Z</time>
      </trkpt>
      <trkpt lat="47.79955" lon="-2.20782">
        <ele>46.1</ele>
        <time>2023-03-22T05:41:17.645Z</time>
      </trkpt>
      <trkpt lat="47.79958" lon="-2.20929">
        <ele>49.2</ele>
        <time>2023-03-22T05:39:05.610Z</time>
      </trkpt>
      <trkpt lat="47.79939" lon="-2.21118">
        <ele>51.9</ele>
        <time>2023-03-22T05:36:14.039Z</time>
      </trkpt>
      <trkpt lat="47.80044" lon="-2.21093">
        <ele>49.4</ele>
        <time>2023-03-22T05:33:51.919Z</time>
      </trkpt>
      <trkpt lat="47.80195" lon="-2.21218">
        <ele>43</ele>
        <time>2023-03-22T05:30:01.000Z</time>
      </trkpt>
      <trkpt lat="47.80146" lon="-2.21731">
        <ele>41.3</ele>
        <time>2023-03-22T05:22:15.820Z</time>
      </trkpt>
      <trkpt lat="47.80121" lon="-2.21791">
        <ele>41.1</ele>
        <time>2023-03-22T05:21:12.432Z</time>
      </trkpt>
      <trkpt lat="47.80114" lon="-2.21896">
        <ele>39</ele>
        <time>2023-03-22T05:19:37.702Z</time>
      </trkpt>
      <trkpt lat="47.80113" lon="-2.21975">
        <ele>40.9</ele>
        <time>2023-03-22T05:18:26.764Z</time>
      </trkpt>
      <trkpt lat="47.80091" lon="-2.22064">
        <ele>43</ele>
        <time>2023-03-22T05:17:01.621Z</time>
      </trkpt>
      <trkpt lat="47.80048" lon="-2.22142">
        <ele>38.7</ele>
        <time>2023-03-22T05:15:31.027Z</time>
      </trkpt>
      <trkpt lat="47.80009" lon="-2.22179">
        <ele>37.3</ele>
        <time>2023-03-22T05:14:29.214Z</time>
      </trkpt>
      <trkpt lat="47.79968" lon="-2.22187">
        <ele>38.7</ele>
        <time>2023-03-22T05:13:33.944Z</time>
      </trkpt>
      <trkpt lat="47.79926" lon="-2.22226">
        <ele>37.3</ele>
        <time>2023-03-22T05:12:27.780Z</time>
      </trkpt>
      <trkpt lat="47.79898" lon="-2.2232">
        <ele>37.7</ele>
        <time>2023-03-22T05:10:55.455Z</time>
      </trkpt>
      <trkpt lat="47.7992" lon="-2.22338">
        <ele>38</ele>
        <time>2023-03-22T05:10:21.900Z</time>
      </trkpt>
      <trkpt lat="47.79963" lon="-2.22333">
        <ele>38.6</ele>
        <time>2023-03-22T05:09:24.248Z</time>
      </trkpt>
      <trkpt lat="47.7999" lon="-2.22299">
        <ele>38.6</ele>
        <time>2023-03-22T05:08:36.978Z</time>
      </trkpt>
      <trkpt lat="47.80001" lon="-2.22253">
        <ele>37.4</ele>
        <time>2023-03-22T05:07:53.136Z</time>
      </trkpt>
      <trkpt lat="47.80023" lon="-2.22228">
        <ele>38</ele>
        <time>2023-03-22T05:07:16.140Z</time>
      </trkpt>
      <trkpt lat="47.80031" lon="-2.22276">
        <ele>41.3</ele>
        <time>2023-03-22T05:06:31.734Z</time>
      </trkpt>
      <trkpt lat="47.80084" lon="-2.22323">
        <ele>44.4</ele>
        <time>2023-03-22T05:05:09.271Z</time>
      </trkpt>
      <trkpt lat="47.80092" lon="-2.22366">
        <ele>44.3</ele>
        <time>2023-03-22T05:04:29.208Z</time>
      </trkpt>
      <trkpt lat="47.80169" lon="-2.22342">
        <ele>47.8</ele>
        <time>2023-03-22T05:02:44.048Z</time>
      </trkpt>
      <trkpt lat="47.80261" lon="-2.22351">
        <ele>52.4</ele>
        <time>2023-03-22T05:00:40.803Z</time>
      </trkpt>
    </trkseg>
  </trk>
</gpx>